Time;durP1;ratioP1;P1;durP2;ratioP2;P2;SDS_P1;SDS_P2;PMS_P1;PMS_P2;Temp;Humidity;BMP_temperature;BMP_pressure;BME280_temperature;BME280_humidity;BME280_pressure;Samples;Min_cycle;Max_cycle;Signal;HPM_P1;HPM_P2
2023/09/23 00:03:53;;;;;;;29.92;18.58;;;;;;;26.24;41.61;102347.84;21071922;28;20105;-60
2023/09/23 00:13:57;;;;;;;17.00;9.00;;;;;;;26.25;41.51;102327.13;21079614;28;20052;-59
2023/09/23 00:24:01;;;;;;;10.60;5.65;;;;;;;26.22;41.30;102321.22;21077371;28;20040;-58
2023/09/23 00:34:03;;;;;;;10.07;3.90;;;;;;;26.25;41.00;102310.28;21077406;28;20097;-58
2023/09/23 00:44:09;;;;;;;11.88;5.90;;;;;;;26.16;40.61;102288.66;21067740;28;20487;-60
2023/09/23 00:54:13;;;;;;;16.13;6.00;;;;;;;26.17;40.92;102291.22;21074225;28;20051;-59
2023/09/23 01:04:15;;;;;;;10.88;5.30;;;;;;;26.21;40.83;102300.75;21069700;28;20040;-59
2023/09/23 01:14:21;;;;;;;7.28;3.90;;;;;;;26.20;40.49;102301.84;21075691;28;20097;-61
2023/09/23 01:24:30;;;;;;;9.15;3.45;;;;;;;26.03;40.50;102264.88;21071245;28;20376;-59
2023/09/23 01:34:31;;;;;;;8.15;2.85;;;;;;;26.10;40.26;102276.63;21072779;28;20507;-60
2023/09/23 01:44:32;;;;;;;7.30;2.70;;;;;;;25.72;40.07;102206.03;21072649;28;20548;-59
2023/09/23 01:54:34;;;;;;;4.93;2.78;;;;;;;26.15;40.35;102259.78;21072911;28;20044;-59
2023/09/23 02:04:37;;;;;;;4.15;2.80;;;;;;;26.13;40.39;102250.81;21078667;28;20044;-59
2023/09/23 02:14:41;;;;;;;6.15;2.97;;;;;;;26.10;40.25;102241.00;21078047;28;20414;-59
2023/09/23 02:24:45;;;;;;;9.50;2.65;;;;;;;26.13;40.57;102239.59;21076882;28;20048;-60
2023/09/23 02:34:47;;;;;;;4.75;2.40;;;;;;;25.97;40.50;102195.88;21079537;28;20040;-60
2023/09/23 02:44:52;;;;;;;4.82;2.80;;;;;;;26.10;40.23;102210.13;21076355;28;20074;-60
2023/09/23 02:54:54;;;;;;;8.80;2.58;;;;;;;25.99;40.31;102216.91;21075591;28;20043;-60
2023/09/23 03:04:58;;;;;;;4.68;2.70;;;;;;;26.04;40.35;102205.69;21080010;28;20551;-60
2023/09/23 03:15:14;;;;;;;8.50;2.83;;;;;;;25.98;40.29;102197.56;21089366;28;20048;-61
2023/09/23 03:25:17;;;;;;;15.27;7.55;;;;;;;25.97;40.24;102191.09;21082980;28;20040;-59
2023/09/23 03:35:20;;;;;;;11.73;5.82;;;;;;;25.95;40.11;102192.53;21082440;28;20044;-60
2023/09/23 03:45:22;;;;;;;9.43;5.25;;;;;;;25.82;39.98;102166.75;21082916;28;20563;-60
2023/09/23 03:55:24;;;;;;;11.40;4.60;;;;;;;25.88;40.02;102164.78;21088498;28;20048;-60
2023/09/23 04:05:28;;;;;;;15.52;4.85;;;;;;;25.89;40.13;102151.59;21083033;28;20040;-60
2023/09/23 04:15:30;;;;;;;10.10;4.30;;;;;;;25.89;40.74;102144.03;21087094;28;20425;-60
2023/09/23 04:25:31;;;;;;;10.95;4.35;;;;;;;25.90;40.83;102123.28;21085544;28;20523;-59
2023/09/23 04:35:36;;;;;;;7.45;3.80;;;;;;;25.92;41.04;102094.94;21079562;28;20036;-59
2023/09/23 04:45:37;;;;;;;6.43;3.90;;;;;;;25.92;41.12;102092.13;21084928;28;20067;-58
2023/09/23 04:55:39;;;;;;;6.45;3.47;;;;;;;25.94;41.24;102090.72;21083624;28;20044;-60
2023/09/23 05:05:41;;;;;;;7.57;3.92;;;;;;;25.92;41.24;102064.94;21080250;28;20113;-58
2023/09/23 05:15:43;;;;;;;7.63;3.70;;;;;;;25.92;41.28;102066.91;21056607;28;20113;-58
2023/09/23 05:25:45;;;;;;;6.07;3.65;;;;;;;25.99;41.89;102073.03;21070276;28;20804;-59
2023/09/23 05:35:46;;;;;;;7.07;3.30;;;;;;;25.88;42.79;102047.00;21077365;28;20055;-56
2023/09/23 05:45:47;;;;;;;6.35;3.45;;;;;;;26.01;43.43;102040.75;21077832;28;20382;-55
2023/09/23 05:55:49;;;;;;;5.75;3.00;;;;;;;26.03;44.15;102037.69;21078441;28;20560;-53
2023/09/23 06:05:50;;;;;;;7.55;3.33;;;;;;;26.05;44.11;102021.38;21078574;28;20043;-57
2023/09/23 06:15:52;;;;;;;10.07;3.60;;;;;;;26.07;44.14;102011.56;21077741;28;20055;-58
2023/09/23 06:26:04;;;;;;;6.00;3.05;;;;;;;26.06;44.03;101986.59;21072926;28;20040;-57
2023/09/23 06:36:05;;;;;;;6.38;3.42;;;;;;;26.01;44.08;101951.00;21075336;28;20048;-58
2023/09/23 06:46:07;;;;;;;5.25;3.20;;;;;;;26.09;44.17;101941.97;21076270;28;20036;-58
2023/09/23 06:56:08;;;;;;;6.60;3.53;;;;;;;26.10;44.08;101920.38;21075534;28;20133;-55
2023/09/23 07:06:10;;;;;;;5.15;3.17;;;;;;;26.07;44.04;101906.91;21073836;28;20097;-58
2023/09/23 07:16:14;;;;;;;6.93;3.55;;;;;;;26.10;43.99;101897.94;21071934;28;20047;-54
2023/09/23 07:26:20;;;;;;;5.22;2.80;;;;;;;26.12;44.14;101876.03;21072455;28;20044;-57
2023/09/23 07:36:21;;;;;;;8.38;3.40;;;;;;;26.14;44.34;101876.56;21073876;28;20048;-56
2023/09/23 07:46:23;;;;;;;7.03;3.13;;;;;;;26.01;44.26;101835.19;21073501;28;20459;-57
2023/09/23 07:56:24;;;;;;;4.45;2.90;;;;;;;26.15;44.46;101858.59;21086620;28;20044;-57
2023/09/23 08:06:29;;;;;;;6.10;2.85;;;;;;;26.15;44.39;101866.19;21088063;28;20048;-56
2023/09/23 08:16:36;;;;;;;5.00;2.60;;;;;;;26.15;44.64;101872.63;21086183;28;20449;-57
2023/09/23 08:26:37;;;;;;;6.00;2.83;;;;;;;26.16;44.57;101862.25;21084993;28;20044;-57
2023/09/23 08:36:41;;;;;;;6.55;2.88;;;;;;;26.16;44.64;101839.81;21084061;28;20483;-58
2023/09/23 08:46:45;;;;;;;4.50;2.55;;;;;;;26.12;44.67;101817.13;21084300;28;20097;-54
2023/09/23 08:56:46;;;;;;;4.72;2.60;;;;;;;26.17;44.87;101824.66;21083211;28;20040;-57
2023/09/23 09:06:52;;;;;;;10.38;3.10;;;;;;;26.16;44.33;101804.19;21079559;28;20453;-55
2023/09/23 09:16:59;;;;;;;9.20;3.55;;;;;;;26.17;44.49;101786.22;21048058;28;20336;-56
2023/09/23 09:27:07;;;;;;;5.25;2.55;;;;;;;26.15;44.78;101774.44;21081131;28;20407;-57
2023/09/23 09:37:11;;;;;;;5.07;2.58;;;;;;;26.15;44.67;101768.84;21080087;28;20406;-57
2023/09/23 09:47:16;;;;;;;5.78;2.63;;;;;;;26.15;44.81;101768.84;21079533;28;20032;-56
2023/09/23 09:57:17;;;;;;;4.85;2.60;;;;;;;26.13;44.76;101739.44;21078232;28;20044;-57
2023/09/23 10:07:22;;;;;;;5.15;2.97;;;;;;;26.13;44.87;101740.25;21073581;28;20437;-58
2023/09/23 10:17:31;;;;;;;5.45;2.42;;;;;;;26.12;45.04;101749.00;21076212;28;20052;-58
2023/09/23 10:27:39;;;;;;;5.00;2.55;;;;;;;26.12;44.74;101744.22;21073213;28;20407;-58
2023/09/23 10:37:41;;;;;;;4.38;2.20;;;;;;;26.04;45.17;101720.44;21073623;28;20040;-57
2023/09/23 10:47:43;;;;;;;5.22;2.10;;;;;;;26.05;44.94;101721.28;21069882;28;20085;-55
2023/09/23 10:57:47;;;;;;;5.00;2.38;;;;;;;26.11;44.83;101745.31;21071159;28;20499;-59
2023/09/23 11:07:49;;;;;;;3.47;2.13;;;;;;;26.11;45.15;101739.72;21073171;28;20040;-56
2023/09/23 11:17:56;;;;;;;3.90;2.40;;;;;;;26.09;45.11;101722.34;21074641;28;20093;-55
2023/09/23 11:27:58;;;;;;;5.53;2.47;;;;;;;26.09;45.25;101705.53;21080336;28;20050;-58
2023/09/23 11:38:00;;;;;;;3.10;2.15;;;;;;;26.08;45.04;101695.44;21084155;28;20060;-58
2023/09/23 11:48:06;;;;;;;4.95;2.53;;;;;;;26.08;45.18;101717.88;21083537;28;20040;-58
2023/09/23 11:58:08;;;;;;;3.40;1.95;;;;;;;26.08;45.13;101710.31;21084693;28;20449;-56
2023/09/23 12:08:10;;;;;;;5.03;2.10;;;;;;;26.08;45.11;101685.06;21085085;28;20047;-57
2023/09/23 12:18:11;;;;;;;4.22;2.20;;;;;;;26.08;45.25;101687.03;21079122;28;20406;-58
2023/09/23 12:28:13;;;;;;;5.70;2.10;;;;;;;26.07;45.50;101696.56;21082185;28;20132;-58
2023/09/23 12:38:17;;;;;;;4.05;2.03;;;;;;;26.05;45.40;101676.41;21072817;28;20030;-59
2023/09/23 12:48:18;;;;;;;3.83;2.03;;;;;;;26.05;45.33;101648.34;21078757;28;20069;-58
2023/09/23 12:58:20;;;;;;;3.15;2.10;;;;;;;26.04;45.60;101621.44;21080601;28;20043;-58
2023/09/23 13:08:23;;;;;;;10.88;2.72;;;;;;;26.04;45.68;101618.63;21076527;28;20040;-58
2023/09/23 13:18:25;;;;;;;4.70;2.10;;;;;;;26.02;45.82;101632.13;21067186;28;20100;-57
2023/09/23 13:28:26;;;;;;;8.82;1.90;;;;;;;26.02;45.96;101640.53;21072278;28;20460;-59
2023/09/23 13:38:29;;;;;;;5.28;1.98;;;;;;;26.03;45.76;101631.00;21080452;28;20044;-55
2023/09/23 13:48:31;;;;;;;4.22;1.88;;;;;;;26.02;46.01;101615.28;21077020;28;20044;-57
2023/09/23 13:58:33;;;;;;;7.40;2.15;;;;;;;26.01;46.32;101619.22;21076930;28;20120;-58
2023/09/23 14:08:35;;;;;;;5.65;2.10;;;;;;;26.00;46.11;101606.34;21072077;28;20036;-60
2023/09/23 14:18:36;;;;;;;2.92;1.80;;;;;;;25.99;45.96;101587.84;21068452;28;20495;-58
2023/09/23 14:28:41;;;;;;;4.43;1.75;;;;;;;25.98;46.03;101558.13;21052318;28;20036;-59
2023/09/23 14:38:42;;;;;;;3.67;1.80;;;;;;;25.96;45.79;101537.97;21059444;28;20090;-59
2023/09/23 14:48:49;;;;;;;2.63;1.90;;;;;;;25.92;46.29;101556.53;21062824;28;20066;-56
2023/09/23 14:58:51;;;;;;;4.57;2.10;;;;;;;25.97;46.46;101576.09;21058445;28;20041;-58
2023/09/23 15:08:55;;;;;;;2.83;1.90;;;;;;;25.97;46.47;101562.06;21088418;28;20048;-59
2023/09/23 15:18:56;;;;;;;3.30;1.77;;;;;;;25.85;46.51;101571.75;21092007;28;20043;-56
2023/09/23 15:28:59;;;;;;;4.03;1.90;;;;;;;25.95;46.87;101589.59;21091223;28;20032;-58
2023/09/23 15:39:00;;;;;;;2.20;1.48;;;;;;;25.94;46.53;101563.53;21084815;28;20100;-58
2023/09/23 15:49:02;;;;;;;2.90;1.48;;;;;;;25.93;46.66;101544.19;21089777;28;20032;-57
2023/09/23 15:59:03;;;;;;;1.63;1.33;;;;;;;25.88;46.71;101535.84;21088156;28;20453;-58
2023/09/23 16:09:05;;;;;;;2.58;2.00;;;;;;;25.93;46.89;101541.38;21082171;28;20048;-57
2023/09/23 16:19:08;;;;;;;2.95;1.20;;;;;;;25.92;46.88;101534.09;21086324;28;20040;-58
2023/09/23 16:29:17;;;;;;;3.70;1.13;;;;;;;25.90;46.97;101544.78;21085979;28;20085;-58
2023/09/23 16:39:18;;;;;;;2.22;1.50;;;;;;;25.89;47.04;101554.31;21033031;28;20036;-58
2023/09/23 16:49:20;;;;;;;3.10;1.20;;;;;;;25.90;46.89;101550.41;21041109;28;20108;-58
2023/09/23 16:59:21;;;;;;;1.73;1.25;;;;;;;25.87;47.30;101551.81;21030213;28;20044;-57
2023/09/23 17:09:23;;;;;;;2.60;1.10;;;;;;;25.87;47.11;101546.22;21082349;28;20047;-58
2023/09/23 17:19:24;;;;;;;28.33;2.80;;;;;;;25.86;47.39;101505.31;21044279;28;20048;-54
2023/09/23 17:29:26;;;;;;;20.20;1.80;;;;;;;25.85;47.02;101487.66;21081584;28;20028;-55
2023/09/23 17:39:27;;;;;;;10.18;2.08;;;;;;;25.87;47.26;101453.69;21047212;28;20078;-57
2023/09/23 17:49:28;;;;;;;8.82;2.60;;;;;;;25.88;47.17;101435.72;21072021;28;20117;-56
2023/09/23 17:59:33;;;;;;;4.93;1.50;;;;;;;25.89;47.44;101414.13;21055660;28;20395;-58
2023/09/23 18:09:36;;;;;;;9.02;1.27;;;;;;;25.89;47.27;101405.72;21050818;28;20037;-58
2023/09/23 18:19:38;;;;;;;4.75;1.70;;;;;;;25.90;47.46;101379.38;21077541;28;20399;-56
2023/09/23 18:29:40;;;;;;;3.92;1.27;;;;;;;25.91;47.69;101372.63;21053529;28;20044;-56
2023/09/23 18:39:41;;;;;;;2.80;1.20;;;;;;;25.91;47.56;101373.44;21068853;28;20061;-59
2023/09/23 18:49:46;;;;;;;4.30;1.63;;;;;;;25.92;47.64;101365.88;21050165;28;20063;-57
2023/09/23 18:59:48;;;;;;;5.03;1.58;;;;;;;25.92;47.83;101379.88;21068977;28;20052;-55
2023/09/23 19:09:52;;;;;;;3.05;1.33;;;;;;;25.92;47.45;101393.91;21065893;28;20094;-57
2023/09/23 19:19:54;;;;;;;3.13;1.00;;;;;;;25.84;47.73;101390.66;21028547;28;20494;-57
2023/09/23 19:29:55;;;;;;;1.45;1.00;;;;;;;25.90;47.68;101368.16;21074531;28;20028;-57
2023/09/23 19:39:56;;;;;;;2.30;0.82;;;;;;;25.91;47.92;101358.59;21041247;28;20101;-56
2023/09/23 19:50:03;;;;;;;1.15;0.80;;;;;;;25.80;47.77;101315.88;21067046;28;20488;-56
2023/09/23 20:00:05;;;;;;;;;;;;;;;25.92;47.69;101352.69;21088669;28;20073;-57
2023/09/23 20:10:10;;;;;;;2.10;0.82;;;;;;;25.96;47.70;101338.88;21067714;28;19916;-57
2023/09/23 20:20:13;;;;;;;0.85;0.70;;;;;;;25.79;47.79;101287.00;21048663;28;20052;-55
2023/09/23 20:30:17;;;;;;;1.40;0.80;;;;;;;25.90;47.97;101314.88;21059304;28;20395;-55
2023/09/23 20:40:21;;;;;;;5.25;1.23;;;;;;;25.76;47.71;101286.81;21055193;28;20417;-57
2023/09/23 20:50:27;;;;;;;9.50;1.67;;;;;;;25.89;48.00;101299.19;21075715;28;20436;-56
2023/09/23 21:00:29;;;;;;;5.95;2.50;;;;;;;25.90;48.20;101328.91;21066123;28;20036;-59
2023/09/23 21:10:34;;;;;;;5.00;3.63;;;;;;;25.90;48.26;101320.50;21066147;28;20172;-57
2023/09/23 21:20:37;;;;;;;5.40;3.08;;;;;;;25.90;48.64;101337.31;21048240;28;20073;-56
2023/09/23 21:30:38;;;;;;;6.88;3.70;;;;;;;25.89;48.37;101319.66;21078864;28;20048;-56
2023/09/23 21:40:40;;;;;;;5.47;3.50;;;;;;;25.87;48.46;101321.09;21077741;28;20391;-57
2023/09/23 21:50:43;;;;;;;4.88;3.55;;;;;;;25.80;48.65;101311.09;21039989;28;20040;-56
2023/09/23 22:00:44;;;;;;;4.47;3.72;;;;;;;25.88;48.66;101308.72;21066629;28;20122;-57
2023/09/23 22:10:47;;;;;;;4.55;3.67;;;;;;;25.88;48.89;101305.94;21051313;28;20097;-56
2023/09/23 22:20:51;;;;;;;6.07;3.50;;;;;;;25.87;48.72;101296.69;21068102;28;20049;-58
2023/09/23 22:30:53;;;;;;;4.25;3.53;;;;;;;25.87;48.78;101282.66;21071767;28;20089;-57
2023/09/23 22:40:55;;;;;;;3.92;3.35;;;;;;;25.88;48.81;101317.16;21046249;28;20074;-57
2023/09/23 22:51:03;;;;;;;4.00;3.10;;;;;;;25.82;48.88;101303.22;21068754;28;20044;-58
2023/09/23 23:01:12;;;;;;;3.55;2.80;;;;;;;25.84;48.78;101298.16;21056159;28;20040;-57
2023/09/23 23:11:16;;;;;;;4.65;2.53;;;;;;;25.73;49.04;101305.00;21064951;28;20457;-58
2023/09/23 23:21:20;;;;;;;4.68;3.08;;;;;;;25.80;48.42;101277.47;21080293;28;20089;-58
2023/09/23 23:31:27;;;;;;;3.42;2.15;;;;;;;25.78;48.53;101290.94;21085182;28;20040;-59
2023/09/23 23:41:29;;;;;;;6.78;2.45;;;;;;;25.80;48.44;101291.50;21090241;28;20040;-58
2023/09/23 23:51:30;;;;;;;4.65;2.15;;;;;;;25.79;48.58;101337.47;21050026;28;20094;-58
